createdAt,value
2023-01-18T00:02:08.339Z,3.97
2023-01-18T00:04:34.912Z,3.98
2023-01-18T00:07:01.524Z,4.00
2023-01-18T00:09:28.151Z,4.02
2023-01-18T00:11:54.735Z,4.05
2023-01-18T00:14:21.376Z,4.07
2023-01-18T00:16:47.964Z,4.09
2023-01-18T00:19:14.643Z,4.10
2023-01-18T00:21:41.217Z,4.11
2023-01-18T00:24:11.384Z,4.10
2023-01-18T00:26:38.170Z,4.08
2023-01-18T00:29:05.180Z,4.09
2023-01-18T00:31:32.317Z,4.08
2023-01-18T00:33:58.959Z,4.08
2023-01-18T00:36:25.529Z,4.08
2023-01-18T00:38:52.684Z,4.03
2023-01-18T00:41:20.623Z,4.02
2023-01-18T00:43:47.391Z,3.97
2023-01-18T00:46:33.741Z,3.96
2023-01-18T00:49:00.274Z,3.96
2023-01-18T00:51:26.889Z,3.97
2023-01-18T00:53:53.527Z,3.96
2023-01-18T00:56:22.387Z,3.96
2023-01-18T00:58:49.418Z,3.94
2023-01-18T01:01:16.583Z,3.94
2023-01-18T01:04:01.745Z,3.95
2023-01-18T01:06:46.008Z,3.96
2023-01-18T01:09:25.186Z,3.95
2023-01-18T01:12:11.710Z,3.96
2023-01-18T01:15:00.163Z,3.98
2023-01-18T01:17:48.030Z,3.97
2023-01-18T01:20:33.849Z,3.97
2023-01-18T01:23:39.233Z,3.95
2023-01-18T01:26:16.382Z,3.94
2023-01-18T01:28:51.194Z,3.95
2023-01-18T01:31:19.214Z,3.96
2023-01-18T01:33:49.140Z,3.97
2023-01-18T01:36:18.911Z,3.98
2023-01-18T01:38:46.043Z,3.97
2023-01-18T01:41:21.396Z,3.98
2023-01-18T01:43:51.170Z,3.99
2023-01-18T01:46:50.110Z,4.01
2023-01-18T01:49:29.921Z,4.03
2023-01-18T01:52:05.160Z,4.05
2023-01-18T01:54:54.803Z,4.08
2023-01-18T01:57:35.335Z,4.06
2023-01-18T02:00:20.449Z,4.05
2023-01-18T02:02:48.407Z,4.06
2023-01-18T02:05:18.100Z,4.06
2023-01-18T02:07:44.951Z,4.09
2023-01-18T02:10:11.977Z,4.12
2023-01-18T02:12:45.036Z,4.15
2023-01-18T02:15:11.873Z,4.23
2023-01-18T02:18:11.240Z,4.28
2023-01-18T02:21:02.527Z,4.45
2023-01-18T02:23:39.579Z,4.52
2023-01-18T02:26:45.072Z,4.57
2023-01-18T02:29:56.375Z,4.64
2023-01-18T02:32:27.850Z,4.66
2023-01-18T02:35:07.236Z,4.76
2023-01-18T02:38:01.240Z,4.75
2023-01-18T02:41:00.283Z,4.77
2023-01-18T02:43:46.174Z,4.82
2023-01-18T02:46:33.843Z,4.91
2023-01-18T02:49:04.796Z,4.88
2023-01-18T02:51:31.467Z,4.87
2023-01-18T02:53:58.808Z,4.87
2023-01-18T02:56:49.250Z,4.83
2023-01-18T02:59:24.587Z,4.87
2023-01-18T03:01:57.483Z,4.86
2023-01-18T03:04:44.978Z,4.85
2023-01-18T03:07:19.400Z,4.81
2023-01-18T03:09:46.702Z,4.80
2023-01-18T03:12:47.425Z,4.75
2023-01-18T03:15:31.099Z,4.72
2023-01-18T03:18:03.030Z,4.66
2023-01-18T03:20:35.789Z,4.62
2023-01-18T03:23:39.805Z,4.57
2023-01-18T03:26:19.537Z,4.57
2023-01-18T03:29:11.204Z,4.54
2023-01-18T03:32:04.655Z,4.52
2023-01-18T03:34:44.164Z,4.51
2023-01-18T03:37:17.995Z,4.50
2023-01-18T03:39:49.651Z,4.50
2023-01-18T03:42:24.034Z,4.49
2023-01-18T03:45:05.730Z,4.50
2023-01-18T03:47:32.753Z,4.49
2023-01-18T03:49:59.339Z,4.45
2023-01-18T03:52:37.685Z,4.43
2023-01-18T03:55:20.946Z,4.43
2023-01-18T03:57:55.872Z,4.40
2023-01-18T04:00:22.486Z,4.41
2023-01-18T04:02:50.219Z,4.42
2023-01-18T04:05:17.365Z,4.42
2023-01-18T04:07:44.601Z,4.40
2023-01-18T04:10:11.737Z,4.42
2023-01-18T04:12:38.361Z,4.43
2023-01-18T04:15:05.518Z,4.43
2023-01-18T04:17:32.112Z,4.44
2023-01-18T04:19:58.794Z,4.45
2023-01-18T04:22:25.578Z,4.47
2023-01-18T04:24:52.351Z,4.49
2023-01-18T04:27:18.991Z,4.51
2023-01-18T04:29:45.591Z,4.52
2023-01-18T04:32:12.174Z,4.50
2023-01-18T04:34:38.704Z,4.50
2023-01-18T04:37:05.270Z,4.41
2023-01-18T04:39:31.812Z,4.36
2023-01-18T04:41:59.413Z,4.36
2023-01-18T04:44:26.017Z,4.37
2023-01-18T04:46:52.826Z,4.37
2023-01-18T04:49:19.537Z,4.36
2023-01-18T04:51:46.820Z,4.36
2023-01-18T04:54:16.744Z,4.36
2023-01-18T04:56:43.359Z,4.34
2023-01-18T04:59:14.569Z,4.36
2023-01-18T05:01:41.151Z,4.37
2023-01-18T05:04:07.735Z,4.37
2023-01-18T05:06:34.302Z,4.36
2023-01-18T05:09:00.900Z,4.39
2023-01-18T05:11:27.476Z,4.41
2023-01-18T05:13:54.033Z,4.40
2023-01-18T05:16:23.072Z,4.42
2023-01-18T05:18:50.041Z,4.39
2023-01-18T05:21:16.699Z,4.38
2023-01-18T05:23:43.336Z,4.36
2023-01-18T05:26:16.285Z,4.36
2023-01-18T05:28:43.381Z,4.41
2023-01-18T05:31:10.015Z,4.39
2023-01-18T05:33:36.879Z,4.36
2023-01-18T05:36:04.107Z,4.39
2023-01-18T05:38:31.024Z,4.35
2023-01-18T05:40:57.872Z,4.34
2023-01-18T05:43:26.572Z,4.34
2023-01-18T05:45:53.434Z,4.35
2023-01-18T05:48:20.622Z,4.35
2023-01-18T05:50:48.797Z,4.34
2023-01-18T05:53:21.126Z,4.29
2023-01-18T05:55:58.622Z,4.21
2023-01-18T05:58:26.608Z,4.16
2023-01-18T06:00:53.831Z,4.12
2023-01-18T06:03:21.159Z,4.02
2023-01-18T06:05:48.438Z,3.97
2023-01-18T06:08:15.921Z,3.91
2023-01-18T06:10:42.550Z,3.87
2023-01-18T06:13:09.943Z,3.87
2023-01-18T06:15:36.619Z,3.85
2023-01-18T06:18:03.281Z,3.81
2023-01-18T06:20:30.522Z,3.78
2023-01-18T06:22:58.600Z,3.80
2023-01-18T06:25:26.759Z,3.80
2023-01-18T06:27:53.352Z,3.80
2023-01-18T06:30:20.419Z,3.76
2023-01-18T06:32:49.951Z,3.72
2023-01-18T06:35:16.582Z,3.64
2023-01-18T06:37:45.350Z,3.59
2023-01-18T06:40:12.477Z,3.57
2023-01-18T06:42:39.091Z,3.55
2023-01-18T06:45:06.131Z,3.54
2023-01-18T06:47:32.720Z,3.49
2023-01-18T06:49:59.272Z,3.43
2023-01-18T06:52:25.875Z,3.40
2023-01-18T06:54:52.416Z,3.52
2023-01-18T06:57:19.019Z,3.53
2023-01-18T06:59:45.531Z,3.51
2023-01-18T07:02:16.622Z,3.47
2023-01-18T07:04:45.378Z,3.47
2023-01-18T07:07:13.201Z,3.48
2023-01-18T07:09:39.772Z,3.55
2023-01-18T07:12:06.362Z,3.55
2023-01-18T07:14:32.921Z,3.49
2023-01-18T07:16:59.535Z,3.49
2023-01-18T07:19:26.165Z,3.54
2023-01-18T07:21:53.830Z,3.54
2023-01-18T07:24:21.239Z,3.51
2023-01-18T07:26:48.342Z,3.50
2023-01-18T07:29:15.046Z,3.48
2023-01-18T07:31:41.719Z,3.51
2023-01-18T07:34:09.853Z,3.42
2023-01-18T07:36:38.763Z,3.35
2023-01-18T07:39:06.627Z,3.23
2023-01-18T07:41:33.226Z,3.06
2023-01-18T07:44:00.443Z,2.93
2023-01-18T07:46:27.617Z,2.82
2023-01-18T07:48:54.298Z,2.67
2023-01-18T07:51:24.422Z,2.56
2023-01-18T07:53:55.244Z,2.56
2023-01-18T07:56:22.945Z,2.54
2023-01-18T07:58:49.537Z,2.54
2023-01-18T08:01:19.136Z,2.54
2023-01-18T08:03:48.020Z,2.56
2023-01-18T08:06:18.614Z,2.58
2023-01-18T08:08:45.460Z,2.64
2023-01-18T08:11:12.573Z,2.65
2023-01-18T08:13:39.211Z,2.71
2023-01-18T08:16:07.692Z,2.78
2023-01-18T08:18:34.899Z,2.93
2023-01-18T08:21:01.471Z,3.05
2023-01-18T08:23:28.172Z,3.16
2023-01-18T08:25:55.506Z,3.29
2023-01-18T08:28:22.152Z,3.54
2023-01-18T08:30:49.256Z,3.95
2023-01-18T08:33:15.931Z,4.39
2023-01-18T08:35:47.519Z,4.69
2023-01-18T08:38:15.853Z,5.12
2023-01-18T08:40:43.355Z,5.54
2023-01-18T08:43:11.802Z,5.90
2023-01-18T08:45:38.593Z,6.25
2023-01-18T08:48:07.875Z,6.13
2023-01-18T08:50:35.828Z,6.09
2023-01-18T08:53:04.066Z,6.19
2023-01-18T08:55:30.801Z,6.11
2023-01-18T08:57:58.345Z,6.00
2023-01-18T09:00:28.508Z,5.92
2023-01-18T09:02:55.345Z,6.00
2023-01-18T09:05:22.655Z,6.04
2023-01-18T09:07:50.920Z,6.10
2023-01-18T09:10:17.805Z,6.38
2023-01-18T09:12:44.412Z,6.44
2023-01-18T09:15:11.091Z,6.18
2023-01-18T09:17:37.760Z,6.12
2023-01-18T09:20:09.640Z,6.40
2023-01-18T09:22:36.861Z,6.55
2023-01-18T09:25:04.669Z,6.23
2023-01-18T09:27:31.706Z,5.99
2023-01-18T09:29:58.410Z,5.63
2023-01-18T09:32:25.564Z,5.42
2023-01-18T09:34:53.120Z,5.13
2023-01-18T09:37:19.723Z,5.12
2023-01-18T09:39:52.319Z,4.97
2023-01-18T09:42:25.372Z,4.80
2023-01-18T09:44:55.387Z,4.68
2023-01-18T09:47:34.441Z,4.73
2023-01-18T09:50:21.505Z,4.73
2023-01-18T09:53:08.875Z,4.67
2023-01-18T09:55:54.284Z,4.63
2023-01-18T09:58:45.619Z,4.59
2023-01-18T10:01:18.561Z,4.63
2023-01-18T10:03:50.586Z,4.78
2023-01-18T10:06:28.897Z,5.02
2023-01-18T10:09:23.625Z,5.71
2023-01-18T10:11:59.644Z,6.44
2023-01-18T10:14:51.233Z,6.79
2023-01-18T10:17:25.937Z,6.58
2023-01-18T10:19:52.402Z,6.55
2023-01-18T10:22:19.708Z,6.76
2023-01-18T10:24:55.304Z,7.10
2023-01-18T10:27:39.980Z,7.22
2023-01-18T10:30:25.820Z,7.32
2023-01-18T10:32:57.235Z,7.45
2023-01-18T10:35:27.899Z,7.73
2023-01-18T10:38:02.727Z,8.61
2023-01-18T10:40:29.334Z,8.59
2023-01-18T10:43:04.352Z,8.83
2023-01-18T10:45:35.068Z,9.31
2023-01-18T10:48:31.009Z,9.73
2023-01-18T10:51:05.878Z,10.35
2023-01-18T10:53:39.502Z,10.14
2023-01-18T10:56:24.263Z,9.36
2023-01-18T10:58:50.857Z,9.68
2023-01-18T11:01:22.522Z,9.87
2023-01-18T11:03:54.448Z,10.15
2023-01-18T11:06:22.297Z,9.70
2023-01-18T11:08:50.005Z,9.60
2023-01-18T11:11:49.072Z,9.72
2023-01-18T11:14:32.072Z,9.26
2023-01-18T11:17:04.019Z,9.27
2023-01-18T11:19:30.683Z,8.91
2023-01-18T11:21:57.420Z,8.61
2023-01-18T11:24:31.891Z,8.81
2023-01-18T11:27:03.997Z,8.64
2023-01-18T11:29:36.460Z,8.62
2023-01-18T11:32:13.368Z,8.86
2023-01-18T11:34:43.714Z,8.98
2023-01-18T11:37:30.610Z,9.04
2023-01-18T11:39:57.206Z,8.82
2023-01-18T11:42:35.123Z,8.98
2023-01-18T11:45:24.963Z,9.20
2023-01-18T11:48:13.760Z,9.30
2023-01-18T11:50:53.974Z,9.10
2023-01-18T11:53:43.663Z,9.38
2023-01-18T11:56:19.381Z,9.37
2023-01-18T11:58:46.109Z,9.46
2023-01-18T12:01:43.404Z,9.15
2023-01-18T12:04:47.363Z,8.80
2023-01-18T12:07:32.766Z,8.66
2023-01-18T12:10:01.690Z,8.85
2023-01-18T12:12:55.759Z,9.01
2023-01-18T12:15:46.580Z,9.10
2023-01-18T12:18:30.378Z,9.42
2023-01-18T12:21:18.941Z,9.98
2023-01-18T12:24:11.743Z,10.43
2023-01-18T12:26:53.766Z,11.10
2023-01-18T12:30:17.476Z,11.47
2023-01-18T12:32:55.515Z,11.42
2023-01-18T12:35:39.735Z,11.43
2023-01-18T12:38:22.931Z,11.46
2023-01-18T12:41:20.909Z,10.84
2023-01-18T12:43:57.629Z,10.45
2023-01-18T12:46:51.879Z,10.04
2023-01-18T12:49:21.492Z,10.51
2023-01-18T12:51:54.239Z,11.49
2023-01-18T12:54:46.347Z,12.46
2023-01-18T12:57:16.451Z,12.91
2023-01-18T12:59:54.224Z,13.01
2023-01-18T13:02:36.041Z,13.22
2023-01-18T13:05:37.830Z,12.43
2023-01-18T13:08:15.500Z,11.93
2023-01-18T13:10:43.112Z,11.63
2023-01-18T13:13:17.514Z,11.34
2023-01-18T13:15:48.045Z,11.17
2023-01-18T13:18:43.006Z,10.80
2023-01-18T13:21:26.244Z,10.52
2023-01-18T13:24:23.321Z,10.08
2023-01-18T13:26:50.063Z,9.86
2023-01-18T13:29:29.897Z,9.60
2023-01-18T13:31:57.379Z,9.38
2023-01-18T13:34:44.898Z,9.15
2023-01-18T13:37:45.385Z,9.13
2023-01-18T13:40:25.453Z,9.04
2023-01-18T13:42:52.239Z,8.89
2023-01-18T13:45:22.540Z,8.82
2023-01-18T13:48:05.261Z,8.81
2023-01-18T13:50:31.822Z,8.59
2023-01-18T13:53:13.811Z,8.50
2023-01-18T13:55:46.285Z,8.47
2023-01-18T13:58:24.912Z,8.42
2023-01-18T14:00:51.858Z,8.46
2023-01-18T14:03:27.657Z,8.49
2023-01-18T14:05:57.125Z,8.72
2023-01-18T14:08:32.574Z,8.99
2023-01-18T14:11:02.727Z,9.06
2023-01-18T14:13:44.541Z,9.29
2023-01-18T14:16:27.166Z,9.79
2023-01-18T14:18:59.046Z,9.80
2023-01-18T14:21:25.700Z,9.82
2023-01-18T14:24:06.164Z,9.70
2023-01-18T14:26:36.071Z,9.57
2023-01-18T14:29:05.418Z,9.13
2023-01-18T14:31:36.054Z,9.08
2023-01-18T14:34:25.160Z,8.97
2023-01-18T14:36:52.707Z,8.81
2023-01-18T14:39:21.587Z,8.74
2023-01-18T14:41:53.159Z,8.61
2023-01-18T14:44:37.479Z,8.60
2023-01-18T14:47:23.829Z,8.45
2023-01-18T14:49:53.580Z,8.28
2023-01-18T14:52:20.803Z,8.16
2023-01-18T14:54:52.173Z,8.13
2023-01-18T14:57:19.238Z,8.17
2023-01-18T14:59:55.191Z,8.18
2023-01-18T15:02:29.263Z,8.05
2023-01-18T15:05:17.041Z,7.91
2023-01-18T15:07:46.619Z,7.86
2023-01-18T15:10:19.163Z,7.81
2023-01-18T15:12:52.431Z,7.78
2023-01-18T15:15:27.771Z,7.72
2023-01-18T15:18:06.430Z,7.58
2023-01-18T15:20:33.914Z,7.51
2023-01-18T15:23:00.972Z,7.44
2023-01-18T15:25:31.488Z,7.33
2023-01-18T15:28:11.725Z,7.23
2023-01-18T15:30:53.517Z,7.10
2023-01-18T15:33:22.182Z,7.08
2023-01-18T15:35:54.657Z,7.09
2023-01-18T15:38:21.653Z,6.98
2023-01-18T15:41:17.500Z,6.90
2023-01-18T15:43:46.146Z,6.91
2023-01-18T15:46:15.882Z,6.88
2023-01-18T15:48:47.491Z,6.78
2023-01-18T15:51:14.424Z,6.58
2023-01-18T15:53:52.536Z,6.51
2023-01-18T15:56:33.312Z,6.49
2023-01-18T15:59:02.418Z,6.43
2023-01-18T16:01:33.943Z,6.39
2023-01-18T16:04:04.132Z,6.38
2023-01-18T16:06:40.293Z,6.38
2023-01-18T16:09:12.258Z,6.38
2023-01-18T16:11:43.033Z,6.30
2023-01-18T16:14:27.876Z,6.24
2023-01-18T16:17:02.713Z,6.17
2023-01-18T16:19:46.900Z,6.17
2023-01-18T16:22:21.762Z,6.20
2023-01-18T16:25:01.356Z,6.14
2023-01-18T16:27:30.747Z,6.13
2023-01-18T16:29:59.881Z,6.13
2023-01-18T16:32:29.536Z,6.14
2023-01-18T16:35:21.161Z,6.13
2023-01-18T16:37:48.968Z,6.03
2023-01-18T16:40:21.121Z,6.02
2023-01-18T16:43:25.555Z,6.00
2023-01-18T16:45:54.820Z,5.94
2023-01-18T16:48:23.995Z,5.88
2023-01-18T16:50:51.864Z,5.85
2023-01-18T16:53:19.201Z,5.77
2023-01-18T16:55:48.183Z,5.81
2023-01-18T16:58:16.580Z,5.80
2023-01-18T17:01:11.036Z,5.79
2023-01-18T17:03:37.667Z,5.75
2023-01-18T17:06:04.359Z,5.69
2023-01-18T17:08:30.956Z,5.66
2023-01-18T17:10:57.699Z,5.66
2023-01-18T17:13:24.369Z,5.64
2023-01-18T17:15:52.918Z,5.65
2023-01-18T17:18:23.979Z,5.61
2023-01-18T17:20:50.589Z,5.58
2023-01-18T17:23:17.908Z,5.59
2023-01-18T17:25:45.096Z,5.51
2023-01-18T17:28:17.882Z,5.47
2023-01-18T17:30:46.915Z,5.38
2023-01-18T17:33:20.685Z,5.38
2023-01-18T17:35:52.408Z,5.41
2023-01-18T17:38:25.105Z,5.45
2023-01-18T17:40:52.450Z,5.43
2023-01-18T17:43:32.240Z,5.40
2023-01-18T17:46:04.236Z,5.40
2023-01-18T17:48:31.083Z,5.43
2023-01-18T17:50:58.593Z,5.43
2023-01-18T17:53:26.759Z,5.45
2023-01-18T17:55:53.410Z,5.47
2023-01-18T17:58:19.947Z,5.49
2023-01-18T18:00:46.667Z,5.49
2023-01-18T18:03:13.450Z,5.50
2023-01-18T18:05:40.325Z,5.53
2023-01-18T18:08:07.754Z,5.50
2023-01-18T18:10:34.351Z,5.50
2023-01-18T18:13:01.540Z,5.44
2023-01-18T18:15:28.393Z,5.41
2023-01-18T18:17:55.021Z,5.43
2023-01-18T18:20:22.733Z,5.41
2023-01-18T18:22:49.648Z,5.42
2023-01-18T18:25:16.330Z,5.41
2023-01-18T18:27:47.176Z,5.43
2023-01-18T18:30:15.121Z,5.44
2023-01-18T18:32:41.748Z,5.45
2023-01-18T18:35:23.671Z,5.46
2023-01-18T18:37:51.003Z,5.47
2023-01-18T18:40:17.895Z,5.49
2023-01-18T18:42:49.950Z,5.47
2023-01-18T18:45:27.053Z,5.48
2023-01-18T18:47:53.694Z,5.50
2023-01-18T18:50:20.368Z,5.53
2023-01-18T18:52:46.927Z,5.56
2023-01-18T18:55:13.831Z,5.56
2023-01-18T18:57:40.502Z,5.57
2023-01-18T19:00:07.855Z,5.58
2023-01-18T19:02:35.162Z,5.58
2023-01-18T19:05:02.081Z,5.59
2023-01-18T19:07:28.989Z,5.58
2023-01-18T19:09:55.708Z,5.57
2023-01-18T19:12:22.385Z,5.58
2023-01-18T19:14:48.961Z,5.58
2023-01-18T19:17:25.236Z,5.56
2023-01-18T19:19:56.256Z,5.56
2023-01-18T19:22:23.392Z,5.56
2023-01-18T19:24:49.909Z,5.57
2023-01-18T19:27:16.610Z,5.57
2023-01-18T19:29:43.366Z,5.56
2023-01-18T19:32:10.190Z,5.55
2023-01-18T19:34:38.535Z,5.56
2023-01-18T19:37:05.418Z,5.57
2023-01-18T19:39:34.819Z,5.57
2023-01-18T19:42:02.040Z,5.58
2023-01-18T19:44:28.857Z,5.57
2023-01-18T19:46:56.931Z,5.57
2023-01-18T19:49:26.340Z,5.56
2023-01-18T19:51:54.680Z,5.53
2023-01-18T19:54:21.792Z,5.53
2023-01-18T19:56:48.469Z,5.53
2023-01-18T19:59:15.147Z,5.50
2023-01-18T20:01:42.059Z,5.51
2023-01-18T20:04:09.668Z,5.51
2023-01-18T20:06:39.783Z,5.50
2023-01-18T20:09:19.016Z,5.51
2023-01-18T20:11:46.806Z,5.53
2023-01-18T20:14:13.420Z,5.52
2023-01-18T20:16:40.610Z,5.52
2023-01-18T20:19:07.407Z,5.53
2023-01-18T20:21:33.989Z,5.50
2023-01-18T20:24:01.019Z,5.50
2023-01-18T20:26:36.774Z,5.49
2023-01-18T20:29:07.340Z,5.47
2023-01-18T20:31:39.000Z,5.47
2023-01-18T20:34:06.256Z,5.46
2023-01-18T20:36:35.021Z,5.46
2023-01-18T20:39:02.317Z,5.44
2023-01-18T20:41:28.918Z,5.43
2023-01-18T20:43:55.552Z,5.43
2023-01-18T20:46:22.354Z,5.43
2023-01-18T20:48:49.606Z,5.44
2023-01-18T20:51:17.946Z,5.45
2023-01-18T20:53:44.799Z,5.46
2023-01-18T20:56:27.789Z,5.48
2023-01-18T20:58:55.904Z,5.48
2023-01-18T21:01:22.729Z,5.49
2023-01-18T21:03:54.588Z,5.48
2023-01-18T21:06:21.302Z,5.48
2023-01-18T21:08:47.895Z,5.50
2023-01-18T21:11:18.732Z,5.48
2023-01-18T21:13:45.311Z,5.46
2023-01-18T21:16:12.589Z,5.42
2023-01-18T21:18:39.455Z,5.38
2023-01-18T21:21:06.526Z,5.38
2023-01-18T21:23:39.551Z,5.37
2023-01-18T21:26:11.769Z,5.36
2023-01-18T21:28:38.387Z,5.35
2023-01-18T21:31:05.763Z,5.34
2023-01-18T21:33:33.162Z,5.29
2023-01-18T21:36:05.264Z,5.26
2023-01-18T21:38:32.362Z,5.24
2023-01-18T21:41:18.917Z,5.23
2023-01-18T21:44:03.838Z,5.24
2023-01-18T21:46:30.422Z,5.23
2023-01-18T21:48:59.178Z,5.22
2023-01-18T21:51:44.030Z,5.22
2023-01-18T21:54:16.753Z,5.20
2023-01-18T21:56:47.264Z,5.21
2023-01-18T21:59:14.543Z,5.21
2023-01-18T22:01:47.118Z,5.23
2023-01-18T22:04:34.025Z,5.22
2023-01-18T22:07:01.269Z,5.19
2023-01-18T22:09:29.588Z,5.19
2023-01-18T22:11:57.352Z,5.17
2023-01-18T22:14:25.650Z,5.16
2023-01-18T22:16:52.443Z,5.16
2023-01-18T22:19:19.205Z,5.16
2023-01-18T22:21:46.080Z,5.14
2023-01-18T22:24:13.595Z,5.14
2023-01-18T22:26:40.909Z,5.10
2023-01-18T22:29:07.645Z,5.12
2023-01-18T22:31:35.052Z,5.07
2023-01-18T22:34:04.465Z,5.07
2023-01-18T22:36:32.240Z,5.07
2023-01-18T22:38:58.811Z,5.10
2023-01-18T22:41:29.325Z,5.08
2023-01-18T22:43:56.512Z,5.06
2023-01-18T22:46:24.058Z,5.03
2023-01-18T22:48:51.053Z,5.01
2023-01-18T22:51:20.452Z,5.02
2023-01-18T22:53:47.928Z,5.00
2023-01-18T22:56:17.655Z,4.97
2023-01-18T22:58:44.655Z,4.95
2023-01-18T23:01:26.093Z,4.95
2023-01-18T23:03:56.116Z,4.94
2023-01-18T23:06:22.801Z,4.94
2023-01-18T23:08:49.940Z,4.93
2023-01-18T23:11:20.020Z,4.94
2023-01-18T23:14:09.551Z,4.95
2023-01-18T23:16:54.901Z,4.92
2023-01-18T23:19:23.835Z,4.93
2023-01-18T23:21:50.775Z,4.93
2023-01-18T23:24:17.743Z,4.92
2023-01-18T23:26:44.790Z,4.89
2023-01-18T23:29:11.362Z,4.86
2023-01-18T23:31:37.911Z,4.88
2023-01-18T23:34:04.509Z,4.88
2023-01-18T23:36:31.249Z,4.87
2023-01-18T23:39:16.500Z,4.85
2023-01-18T23:42:01.859Z,4.82
2023-01-18T23:44:47.155Z,4.80
2023-01-18T23:47:32.583Z,4.76
2023-01-18T23:50:17.675Z,4.73
2023-01-18T23:53:02.554Z,4.72
2023-01-18T23:55:29.092Z,4.70
2023-01-18T23:57:55.665Z,4.69
